Air Resources Laboratory banner image
Air Resources Laboratory web site National Oceanic and Atmospheric Administration (NOAA)

la metar


KAEX 160553Z 30003KT 9SM OVC030 09/08 A3020 RMK AO2 SLP230 T00940078 10094
 20094 401060089 51008=
KARA 160553Z AUTO 02005KT 10SM BKN031 08/06 A3021 RMK AO2 SLP229 60000
 T00780061 10106 20078 401170078 50002=
KASD 160553Z AUTO 00000KT 10SM BKN017 BKN026 OVC035 10/08 A3017 RMK AO2 SLP218
 T01000078 10111 20100 401220100 51009=
KBAD 160555Z 00000KT 10SM CLR 05/04 A3022 RMK AO2A SLPNO WND DATA ESTMD ALSTG
 ESTMD $=
KBTR 160553Z 00000KT 10SM BKN012 OVC029 09/08 A3020 RMK AO2 SLP225 T00940083
 10100 20094 401060089 53004=
KBVE 160551Z AUTO 30004KT 10SM OVC035 11/08 A3018 RMK AO2 SLP219 T01060083
 10111 20106 401440106 50008=
KCWF 160555Z 00000KT 10SM OVC041 07/06 A3024 RMK AO2 T00700064 10112 20064
 401480064 PWINO=
KDRI 160555Z AUTO 00000KT 7SM SCT037 07/06 A3025 RMK AO2 T00670060 10103 20062
 401310062=
KDTN 160553Z AUTO 00000KT 7SM CLR 06/05 A3022 RMK AO2 SLP232 T00610050 10111
 20056 401220056 50011=
KESF 160553Z AUTO 27003KT 10SM OVC028 09/08 A3020 RMK AO2 SLP226 T00890083
 10089 20083 401110083 51007=
KHUM 160555Z AUTO 30005KT 10SM OVC031 10/09 A3020 RMK AO2 T01020087 10111 20101
 401140096=
KIER 160555Z AUTO 29003KT 10SM CLR 09/07 A3022 RMK AO2 T00850074 10096 20085
 401010085=
KLCH 160553Z AUTO 00000KT 7SM CLR 07/06 A3023 RMK AO2 SLP243 T00670061 10128
 20067 401610067 51011=
KLFT 160553Z AUTO 34004KT 10SM OVC029 10/08 A3021 RMK AO2 SLP228 T01000078
 10111 20089 401220089 51002=
KMLU 160553Z AUTO 33003KT 10SM OVC033 09/08 A3021 RMK AO2 SLP230 T00940083
 10100 20083 401110083 53009=
KMSY 160553Z 32007KT 10SM SCT015 OVC036 11/09 A3019 RMK AO2 SLP225 T01110089
 10117 20111 401280106 51010=
KNBG 160555Z AUTO 34005KT 10SM BKN023 OVC028 11/09 A3018 RMK AO2 SLP219
 T01110089 10117 20111 401220100 51010 $=
KNEW 160553Z AUTO 33012KT 10SM BKN017 OVC037 11/08 A3019 RMK AO2 SLP215
 T01110083 10117 20111 401220106 50009=
KPOE 160558Z AUTO 00000KT 10SM BKN034 08/07 A3021 RMK AO2 SLP233 T00810071
 10101 20081 401080081 51009=
KPTN 160556Z AUTO 33004KT 10SM OVC028 10/08 A3021 RMK AO2 SLP230 T01000083
 10106 20100 401110094 50007=
KSHV 160556Z 28003KT 10SM CLR 05/04 A3021 RMK AO2 SLP230 T00500044 10106 20044
 401330044 50012=
KTVR 160553Z AUTO 30004KT 10SM OVC016 09/08 A3019 RMK AO2 SLP230 60000
 T00940078 10100 20094 401110083 51007=